Time;durP1;ratioP1;P1;durP2;ratioP2;P2;SDS_P1;SDS_P2;PMS_P1;PMS_P2;Temp;Humidity;BMP_temperature;BMP_pressure;BME280_temperature;BME280_humidity;BME280_pressure;Samples;Min_cycle;Max_cycle;Signal;HPM_P1;HPM_P2
2023/02/17 00:01:45;;;;;;;51.65;24.90;;;;;;;8.24;100.00;100904.41;5079758;28;20028;-66
2023/02/17 00:04:10;;;;;;;48.92;24.77;;;;;;;8.31;100.00;100917.94;5096659;28;20032;-67
2023/02/17 00:06:36;;;;;;;51.72;24.05;;;;;;;8.16;100.00;100910.69;5096859;28;20395;-67
2023/02/17 00:09:02;;;;;;;48.83;24.20;;;;;;;8.28;100.00;100912.94;5097625;28;20111;-66
2023/02/17 00:11:27;;;;;;;49.70;23.85;;;;;;;8.30;100.00;100911.75;5096956;28;20028;-66
2023/02/17 00:13:53;;;;;;;48.42;24.48;;;;;;;8.28;100.00;100908.44;5099310;28;20026;-66
2023/02/17 00:16:21;;;;;;;48.75;24.33;;;;;;;8.20;100.00;100908.50;5100534;28;20089;-67
2023/02/17 00:18:52;;;;;;;51.67;24.48;;;;;;;8.16;100.00;100894.63;5097110;28;20048;-66
2023/02/17 00:21:20;;;;;;;55.90;24.00;;;;;;;8.19;100.00;100901.47;5102715;28;20032;-66
2023/02/17 00:23:47;;;;;;;54.72;24.73;;;;;;;8.18;100.00;100900.63;5104284;28;20031;-67
2023/02/17 00:26:13;;;;;;;49.90;24.80;;;;;;;8.05;100.00;100878.16;5099057;28;20024;-67
2023/02/17 00:28:39;;;;;;;49.70;23.00;;;;;;;7.93;100.00;100857.13;5098616;28;20031;-66
2023/02/17 00:31:06;;;;;;;47.97;21.67;;;;;;;8.19;100.00;100891.56;5097640;28;20020;-66
2023/02/17 00:33:32;;;;;;;50.92;23.98;;;;;;;8.00;100.00;100844.66;5097607;28;20020;-67
2023/02/17 00:35:57;;;;;;;45.15;23.45;;;;;;;8.23;100.00;100875.97;5078979;28;20047;-66
2023/02/17 00:38:23;;;;;;;48.15;23.30;;;;;;;8.20;100.00;100871.78;5096170;28;20525;-66
2023/02/17 00:40:48;;;;;;;49.03;23.33;;;;;;;8.18;100.00;100867.66;5097921;28;20023;-67
2023/02/17 00:43:14;;;;;;;52.63;24.73;;;;;;;8.19;100.00;100875.50;5080446;28;20061;-67
2023/02/17 00:45:39;;;;;;;45.40;23.00;;;;;;;8.21;100.00;100867.25;5096661;28;20036;-67
2023/02/17 00:48:05;;;;;;;52.50;24.10;;;;;;;8.18;100.00;100867.66;5080021;28;20671;-66
2023/02/17 00:50:30;;;;;;;47.70;23.42;;;;;;;8.22;100.00;100850.19;5098674;28;20356;-67
2023/02/17 00:52:55;;;;;;;44.42;21.80;;;;;;;8.38;100.00;100858.09;5098015;28;20024;-67
2023/02/17 00:55:21;;;;;;;46.22;22.63;;;;;;;8.32;100.00;100837.34;5096270;28;20028;-67
2023/02/17 00:57:46;;;;;;;40.50;22.48;;;;;;;8.46;100.00;100858.00;5095446;28;20111;-66
2023/02/17 01:00:12;;;;;;;39.28;20.08;;;;;;;8.41;100.00;100836.28;5095500;28;20432;-67
2023/02/17 01:02:38;;;;;;;43.75;22.17;;;;;;;8.45;100.00;100842.09;5096615;28;20036;-67
2023/02/17 01:05:03;;;;;;;50.72;21.50;;;;;;;8.44;100.00;100832.38;5078856;28;20522;-66
2023/02/17 01:07:29;;;;;;;46.53;20.95;;;;;;;8.47;100.00;100829.31;5095627;28;20089;-66
2023/02/17 01:09:54;;;;;;;44.40;20.52;;;;;;;8.40;100.00;100834.59;5095513;28;20463;-66
2023/02/17 01:12:20;;;;;;;41.83;20.35;;;;;;;8.36;100.00;100809.13;5094925;28;20077;-67
2023/02/17 01:14:46;;;;;;;44.42;20.20;;;;;;;8.36;100.00;100793.06;5095338;28;20024;-66
2023/02/17 01:17:11;;;;;;;40.92;19.38;;;;;;;8.49;100.00;100810.38;5096311;28;20307;-67
2023/02/17 01:19:37;;;;;;;41.83;19.80;;;;;;;8.49;100.00;100818.44;5096817;28;20043;-67
2023/02/17 01:22:02;;;;;;;44.88;20.52;;;;;;;8.50;100.00;100812.03;5095784;28;20036;-67
2023/02/17 01:24:28;;;;;;;45.25;20.25;;;;;;;8.35;100.00;100791.41;5096333;28;20020;-67
2023/02/17 01:26:54;;;;;;;42.83;20.10;;;;;;;8.47;100.00;100807.88;5096852;28;20398;-67
2023/02/17 01:29:19;;;;;;;46.95;21.45;;;;;;;8.45;100.00;100793.84;5096859;28;20089;-68
2023/02/17 01:31:45;;;;;;;47.83;21.92;;;;;;;8.49;100.00;100794.28;5095920;28;20024;-67
2023/02/17 01:34:10;;;;;;;53.67;22.15;;;;;;;8.46;100.00;100785.59;5097104;28;20024;-67
2023/02/17 01:36:36;;;;;;;46.72;22.65;;;;;;;8.41;100.00;100788.00;5097079;28;20110;-66
2023/02/17 01:39:02;;;;;;;51.88;23.40;;;;;;;8.43;100.00;100791.31;5096622;28;20028;-66
2023/02/17 01:41:28;;;;;;;58.58;23.25;;;;;;;8.40;100.00;100783.63;5098174;28;20396;-66
2023/02/17 01:44:15;;;;;;;54.08;26.20;;;;;;;8.34;100.00;100764.75;5100407;28;20024;-66
2023/02/17 01:46:43;;;;;;;57.53;25.08;;;;;;;8.44;100.00;100779.59;5098176;28;20051;-66
2023/02/17 01:49:28;;;;;;;61.47;26.33;;;;;;;8.45;100.00;100778.56;5103140;28;20043;-66
2023/02/17 01:52:19;;;;;;;60.85;27.30;;;;;;;8.40;100.00;100754.16;5100921;28;20020;-67
2023/02/17 01:54:51;;;;;;;63.03;27.75;;;;;;;8.39;100.00;100760.53;5097453;28;20496;-67
2023/02/17 01:57:20;;;;;;;67.00;29.10;;;;;;;8.40;100.00;100742.59;5095359;28;20024;-67
2023/02/17 01:59:46;;;;;;;67.13;29.60;;;;;;;8.32;100.00;100746.19;5095163;28;20054;-67
2023/02/17 02:02:12;;;;;;;69.05;29.13;;;;;;;8.36;100.00;100750.16;5111468;28;20085;-67
2023/02/17 02:04:42;;;;;;;68.70;30.17;;;;;;;8.21;100.00;100722.50;5095092;28;20036;-66
2023/02/17 02:07:13;;;;;;;75.75;32.55;;;;;;;8.27;100.00;100720.94;5096285;28;20032;-66
2023/02/17 02:09:45;;;;;;;75.75;31.85;;;;;;;8.40;100.00;100732.69;5095843;28;20028;-67
2023/02/17 02:12:20;;;;;;;70.82;31.98;;;;;;;8.40;100.00;100739.91;5099601;28;20036;-66
2023/02/17 02:14:46;;;;;;;84.20;35.63;;;;;;;8.34;100.00;100727.22;5099788;28;20169;-67
2023/02/17 02:17:44;;;;;;;87.32;35.03;;;;;;;8.34;100.00;100714.63;5098616;28;20096;-66
2023/02/17 02:20:40;;;;;;;82.75;35.40;;;;;;;8.30;100.00;100710.69;5100209;28;20028;-67
2023/02/17 02:23:21;;;;;;;77.88;33.58;;;;;;;8.19;100.00;100703.13;5099134;28;20042;-67
2023/02/17 02:26:23;;;;;;;75.90;34.28;;;;;;;8.24;100.00;100700.69;5096565;28;20032;-67
2023/02/17 02:29:27;;;;;;;64.80;32.28;;;;;;;8.14;100.00;100689.44;5098609;28;20031;-67
2023/02/17 02:32:21;;;;;;;62.50;31.65;;;;;;;8.13;100.00;100687.78;5062573;28;20039;-67
2023/02/17 02:34:54;;;;;;;60.60;30.83;;;;;;;8.13;100.00;100682.41;5078387;28;20456;-66
2023/02/17 02:37:27;;;;;;;61.03;31.52;;;;;;;8.13;100.00;100680.56;5099091;28;20165;-66
2023/02/17 02:39:54;;;;;;;68.03;33.08;;;;;;;8.21;100.00;100676.94;5100433;28;20142;-67
2023/02/17 02:42:23;;;;;;;63.67;31.98;;;;;;;8.17;100.00;100662.25;5098711;28;20061;-67
2023/02/17 02:44:49;;;;;;;71.18;33.63;;;;;;;8.15;100.00;100658.94;5099057;28;20020;-67
2023/02/17 02:47:39;;;;;;;68.22;33.78;;;;;;;8.14;100.00;100662.63;5098769;28;20035;-67
2023/02/17 02:50:06;;;;;;;61.85;32.75;;;;;;;8.10;100.00;100656.00;5100701;28;20020;-67
2023/02/17 02:52:53;;;;;;;62.35;32.28;;;;;;;8.15;100.00;100656.28;5100158;28;20141;-67
2023/02/17 02:55:59;;;;;;;67.90;31.77;;;;;;;8.17;100.00;100648.84;5099444;28;20038;-67
2023/02/17 02:58:49;;;;;;;69.90;30.85;;;;;;;8.13;100.00;100644.91;5096984;28;20024;-67
2023/02/17 03:01:54;;;;;;;62.75;29.83;;;;;;;7.98;100.00;100615.44;5098327;28;20020;-67
2023/02/17 03:04:44;;;;;;;64.88;29.08;;;;;;;8.15;100.00;100637.50;5097917;28;20028;-68
2023/02/17 03:07:20;;;;;;;68.15;30.63;;;;;;;8.13;100.00;100624.28;5099181;28;20035;-67
2023/02/17 03:09:50;;;;;;;65.43;30.33;;;;;;;8.10;100.00;100623.81;5109071;28;20091;-66
2023/02/17 03:12:16;;;;;;;65.63;31.13;;;;;;;8.06;100.00;100607.28;5100327;28;20471;-67
2023/02/17 03:14:42;;;;;;;65.63;29.17;;;;;;;8.14;100.00;100612.53;5100234;28;20032;-67
2023/02/17 03:17:08;;;;;;;66.70;29.13;;;;;;;8.09;100.00;100606.94;5102345;28;20077;-66
2023/02/17 03:19:34;;;;;;;62.15;28.88;;;;;;;8.09;100.00;100596.19;5104470;28;20027;-67
2023/02/17 03:22:24;;;;;;;68.22;27.80;;;;;;;7.95;100.00;100557.72;5102165;28;20028;-67
2023/02/17 03:24:50;;;;;;;70.80;30.30;;;;;;;8.12;100.00;100582.44;5095852;28;20028;-68
2023/02/17 03:27:15;;;;;;;81.35;31.52;;;;;;;8.07;100.00;100567.94;5097407;28;20092;-67
2023/02/17 03:29:41;;;;;;;76.43;30.80;;;;;;;8.05;100.00;100561.94;5113431;28;20444;-67
2023/02/17 03:32:07;;;;;;;78.95;31.80;;;;;;;7.98;100.00;100553.81;5098016;28;20051;-66
2023/02/17 03:34:33;;;;;;;77.32;33.72;;;;;;;7.94;100.00;100548.00;5079754;28;20032;-68
2023/02/17 03:36:58;;;;;;;74.78;32.03;;;;;;;7.99;100.00;100544.75;5097641;28;20111;-67
2023/02/17 03:39:24;;;;;;;89.10;33.97;;;;;;;7.98;100.00;100546.63;5097485;28;20028;-67
2023/02/17 03:41:50;;;;;;;82.35;34.30;;;;;;;7.92;100.00;100535.81;5097216;28;20024;-66
2023/02/17 03:44:19;;;;;;;80.75;34.03;;;;;;;7.94;100.00;100526.56;5096586;28;20426;-66
2023/02/17 03:46:45;;;;;;;83.32;32.83;;;;;;;7.90;100.00;100511.88;5097196;28;20107;-66
2023/02/17 03:49:11;;;;;;;76.82;33.08;;;;;;;7.89;100.00;100518.28;5113313;28;20051;-67
2023/02/17 03:51:37;;;;;;;75.18;33.13;;;;;;;7.88;100.00;100503.22;5097452;28;20024;-66
2023/02/17 03:54:03;;;;;;;65.20;30.67;;;;;;;7.86;100.00;100494.53;5096784;28;20020;-67
2023/02/17 03:56:28;;;;;;;71.57;30.95;;;;;;;7.90;100.00;100474.38;5096473;28;20063;-66
2023/02/17 03:58:54;;;;;;;63.88;30.25;;;;;;;7.93;100.00;100468.63;5097443;28;20454;-67
2023/02/17 04:01:20;;;;;;;54.08;27.33;;;;;;;7.90;100.00;100469.03;5098117;28;20035;-67
2023/02/17 04:03:45;;;;;;;62.42;27.65;;;;;;;7.92;100.00;100464.31;5098194;28;20035;-66
2023/02/17 04:06:11;;;;;;;57.67;26.88;;;;;;;7.91;100.00;100454.63;5095954;28;20097;-66
2023/02/17 04:08:37;;;;;;;56.60;25.92;;;;;;;7.96;100.00;100457.53;5097297;28;20046;-67
2023/02/17 04:11:04;;;;;;;59.83;26.92;;;;;;;7.99;100.00;100450.97;5097117;28;20024;-67
2023/02/17 04:13:30;;;;;;;50.60;23.75;;;;;;;8.01;100.00;100448.94;5113023;28;20084;-67
2023/02/17 04:15:56;;;;;;;47.88;22.15;;;;;;;8.04;100.00;100447.72;5101697;28;20059;-68
2023/02/17 04:18:22;;;;;;;44.55;21.83;;;;;;;7.95;100.00;100439.00;5082000;28;20075;-67
2023/02/17 04:20:49;;;;;;;47.28;21.55;;;;;;;8.06;100.00;100434.97;5097609;28;20477;-67
2023/02/17 04:23:16;;;;;;;41.53;19.70;;;;;;;8.06;100.00;100430.44;5098786;28;20024;-66
2023/02/17 04:25:41;;;;;;;41.33;19.15;;;;;;;8.10;100.00;100420.16;5092406;28;20483;-67
2023/02/17 04:28:07;;;;;;;38.17;17.10;;;;;;;8.16;100.00;100417.53;5095073;28;20034;-66
2023/02/17 04:30:33;;;;;;;28.10;15.63;;;;;;;8.06;100.00;100400.97;5095445;28;20040;-66
2023/02/17 04:32:59;;;;;;;28.10;15.45;;;;;;;8.04;100.00;100410.22;5093856;28;20528;-66
2023/02/17 04:35:25;;;;;;;28.35;14.60;;;;;;;8.13;100.00;100401.03;5096849;28;20039;-67
2023/02/17 04:37:51;;;;;;;31.40;13.82;;;;;;;8.17;100.00;100399.59;5099329;28;20543;-67
2023/02/17 04:40:16;;;;;;;27.00;12.63;;;;;;;8.15;100.00;100391.78;5109908;28;20028;-66
2023/02/17 04:42:42;;;;;;;24.92;12.00;;;;;;;8.18;100.00;100382.53;5108923;28;20020;-67
2023/02/17 04:45:08;;;;;;;22.70;10.98;;;;;;;8.19;100.00;100371.59;5096469;28;20031;-66
2023/02/17 04:47:33;;;;;;;19.88;9.85;;;;;;;7.97;100.00;100341.31;5099218;28;20028;-66
2023/02/17 04:49:59;;;;;;;20.98;9.60;;;;;;;8.06;100.00;100354.59;5101832;28;20019;-66
2023/02/17 04:52:24;;;;;;;23.73;10.57;;;;;;;8.11;100.00;100353.00;5096191;28;20050;-66
2023/02/17 04:54:50;;;;;;;28.27;11.32;;;;;;;8.06;100.00;100331.28;5095372;28;20023;-66
2023/02/17 04:57:15;;;;;;;25.52;10.75;;;;;;;8.18;100.00;100332.44;5094617;28;20474;-67
2023/02/17 04:59:41;;;;;;;28.58;11.55;;;;;;;8.18;100.00;100319.03;5096477;28;20039;-66
2023/02/17 05:02:06;;;;;;;26.52;10.75;;;;;;;8.17;100.00;100313.84;5096720;28;20035;-67
2023/02/17 05:04:32;;;;;;;27.65;11.93;;;;;;;7.92;100.00;100268.75;5097289;28;20028;-67
2023/02/17 05:06:58;;;;;;;35.20;13.13;;;;;;;7.96;100.00;100278.03;5096072;28;20035;-67
2023/02/17 05:09:24;;;;;;;31.25;12.77;;;;;;;7.94;100.00;100264.00;5096806;28;20042;-66
2023/02/17 05:11:49;;;;;;;34.42;12.95;;;;;;;8.13;100.00;100275.91;5095865;28;20075;-66
2023/02/17 05:14:15;;;;;;;33.85;13.18;;;;;;;7.99;100.00;100258.06;5096737;28;20032;-67
2023/02/17 05:16:40;;;;;;;38.72;15.10;;;;;;;7.99;100.00;100255.41;5095381;28;20039;-67
2023/02/17 05:19:06;;;;;;;39.28;14.57;;;;;;;7.96;100.00;100263.81;5096774;28;20119;-68
2023/02/17 05:21:31;;;;;;;40.22;16.08;;;;;;;8.10;100.00;100259.38;5079054;28;20157;-68
2023/02/17 05:23:57;;;;;;;48.85;17.80;;;;;;;8.15;100.00;100243.56;5078837;28;20031;-68
2023/02/17 05:26:23;;;;;;;50.40;17.27;;;;;;;8.14;100.00;100237.34;5096664;28;20031;-68
2023/02/17 05:28:48;;;;;;;43.30;18.27;;;;;;;7.97;100.00;100218.06;5096403;28;20043;-67
2023/02/17 05:31:13;;;;;;;47.30;20.55;;;;;;;8.06;100.00;100220.63;5078967;28;20501;-66
2023/02/17 05:33:39;;;;;;;52.80;20.83;;;;;;;8.05;100.00;100198.34;5096584;28;20028;-67
2023/02/17 05:36:07;;;;;;;48.10;18.98;;;;;;;7.96;100.00;100195.00;5096569;28;20035;-66
2023/02/17 05:38:33;;;;;;;48.10;20.67;;;;;;;8.07;100.00;100187.44;5096540;28;20078;-67
2023/02/17 05:40:58;;;;;;;52.97;20.77;;;;;;;8.04;100.00;100156.50;5093495;28;20053;-68
2023/02/17 05:43:24;;;;;;;51.03;21.42;;;;;;;8.07;100.00;100157.94;5093865;28;20032;-67
2023/02/17 05:45:49;;;;;;;53.33;21.98;;;;;;;8.12;100.00;100140.25;5099795;28;20024;-67
2023/02/17 05:48:16;;;;;;;55.28;22.20;;;;;;;8.00;100.00;100126.59;5100413;28;20032;-67
2023/02/17 05:50:41;;;;;;;54.35;21.90;;;;;;;8.06;100.00;100119.63;5100769;28;20028;-68
2023/02/17 05:53:07;;;;;;;44.65;21.30;;;;;;;7.86;100.00;100105.31;5101758;28;20016;-68
2023/02/17 05:55:32;;;;;;;53.55;22.25;;;;;;;8.03;100.00;100114.66;5083453;28;20038;-67
2023/02/17 05:57:58;;;;;;;50.85;22.85;;;;;;;8.07;100.00;100123.13;5101821;28;20044;-66
2023/02/17 06:00:23;;;;;;;47.92;21.60;;;;;;;8.04;100.00;100121.66;5102311;28;20054;-67
2023/02/17 06:02:49;;;;;;;50.10;22.60;;;;;;;8.11;100.00;100113.66;5101628;28;20081;-68
2023/02/17 06:05:15;;;;;;;51.45;23.65;;;;;;;7.96;100.00;100090.50;5107703;28;20062;-67
2023/02/17 06:07:41;;;;;;;52.70;22.25;;;;;;;8.09;100.00;100110.34;5113275;28;20028;-67
2023/02/17 06:10:07;;;;;;;56.22;25.45;;;;;;;8.09;100.00;100102.31;5109051;28;20028;-67
2023/02/17 06:12:33;;;;;;;60.92;25.00;;;;;;;8.13;100.00;100090.16;5100727;28;20043;-67
2023/02/17 06:14:58;;;;;;;72.07;27.63;;;;;;;8.05;100.00;100077.78;5102591;28;20069;-68
2023/02/17 06:17:25;;;;;;;69.97;29.92;;;;;;;8.11;100.00;100071.63;5100650;28;20071;-67
2023/02/17 06:19:50;;;;;;;75.63;30.77;;;;;;;8.09;100.00;100062.13;5082121;28;20048;-66
2023/02/17 06:22:15;;;;;;;92.10;33.08;;;;;;;8.13;100.00;100063.38;5100514;28;20089;-68
2023/02/17 06:24:41;;;;;;;96.45;34.15;;;;;;;8.18;100.00;100058.25;5097629;28;20024;-68
2023/02/17 06:27:06;;;;;;;109.97;37.42;;;;;;;8.13;100.00;100015.97;5101432;28;20066;-68
2023/02/17 06:29:32;;;;;;;101.57;37.50;;;;;;;8.18;100.00;100036.81;5101897;28;20024;-67
2023/02/17 06:31:57;;;;;;;112.35;39.60;;;;;;;8.20;100.00;100032.06;5092098;28;20134;-68
2023/02/17 06:34:22;;;;;;;111.50;39.10;;;;;;;8.24;100.00;100036.81;5106453;28;20024;-69
2023/02/17 06:36:48;;;;;;;111.43;40.95;;;;;;;8.31;100.00;100036.84;5092201;28;20031;-68
2023/02/17 06:39:13;;;;;;;102.13;38.53;;;;;;;8.28;100.00;100021.16;5080507;28;20035;-68
2023/02/17 06:41:39;;;;;;;113.20;41.72;;;;;;;8.32;100.00;100017.03;5100051;28;20032;-68
2023/02/17 06:44:04;;;;;;;107.95;39.97;;;;;;;8.17;100.00;99993.09;5083012;28;20135;-67
2023/02/17 06:46:30;;;;;;;105.22;40.53;;;;;;;8.32;100.00;100010.84;5102135;28;20024;-68
2023/02/17 06:48:55;;;;;;;121.45;41.95;;;;;;;8.34;100.00;100003.41;5083419;28;20394;-68
2023/02/17 06:51:21;;;;;;;109.97;41.05;;;;;;;8.26;100.00;99991.03;5098769;28;20077;-67
2023/02/17 06:53:46;;;;;;;117.13;42.15;;;;;;;8.31;100.00;99988.59;5099148;28;20068;-68
2023/02/17 06:56:12;;;;;;;133.40;43.47;;;;;;;8.37;100.00;99979.72;5099185;28;20032;-69
2023/02/17 06:58:40;;;;;;;93.13;38.13;;;;;;;8.28;100.00;99974.75;5081162;28;20039;-68
2023/02/17 07:01:08;;;;;;;101.43;38.20;;;;;;;8.30;100.00;99970.03;5100060;28;20040;-67
2023/02/17 07:03:34;;;;;;;117.78;40.08;;;;;;;8.35;100.00;99962.19;5100050;28;20028;-67
2023/02/17 07:05:59;;;;;;;103.03;39.53;;;;;;;8.22;100.00;99952.28;5099294;28;20028;-67
2023/02/17 07:08:25;;;;;;;85.95;36.15;;;;;;;8.19;100.00;99931.25;5099731;28;21047;-67
2023/02/17 07:10:50;;;;;;;94.80;38.05;;;;;;;8.39;100.00;99948.19;5099596;28;20131;-67
2023/02/17 07:13:16;;;;;;;84.15;35.50;;;;;;;8.46;100.00;99950.88;5100779;28;20024;-68
2023/02/17 07:15:41;;;;;;;85.38;34.22;;;;;;;8.45;100.00;99936.66;5099279;28;20119;-67
2023/02/17 07:18:07;;;;;;;70.30;32.22;;;;;;;8.45;100.00;99939.34;5102702;28;20044;-69
2023/02/17 07:20:33;;;;;;;78.47;33.78;;;;;;;8.43;100.00;99930.66;5110392;28;20035;-68
2023/02/17 07:22:59;;;;;;;78.57;33.15;;;;;;;8.47;100.00;99925.72;5105905;28;20035;-68
2023/02/17 07:25:25;;;;;;;71.75;30.52;;;;;;;8.50;100.00;99919.94;5098015;28;20431;-67
2023/02/17 07:27:50;;;;;;;63.28;29.67;;;;;;;8.51;100.00;99907.34;5098549;28;20039;-68
2023/02/17 07:30:16;;;;;;;63.28;28.88;;;;;;;8.51;100.00;99896.63;5080464;28;20093;-67
2023/02/17 07:32:42;;;;;;;54.47;26.67;;;;;;;8.51;100.00;99885.91;5098702;28;20105;-67
2023/02/17 07:35:08;;;;;;;51.67;25.63;;;;;;;8.54;100.00;99872.91;5108478;28;20032;-67
2023/02/17 07:37:33;;;;;;;51.97;25.80;;;;;;;8.57;100.00;99863.63;5107988;28;20556;-67
2023/02/17 07:39:59;;;;;;;57.33;26.70;;;;;;;8.57;100.00;99859.09;5101078;28;20027;-68
2023/02/17 07:42:26;;;;;;;57.22;26.30;;;;;;;8.58;100.00;99865.28;5099499;28;20032;-69
2023/02/17 07:44:52;;;;;;;51.80;26.00;;;;;;;8.52;100.00;99856.22;5101022;28;20032;-66
2023/02/17 07:47:17;;;;;;;71.43;30.42;;;;;;;8.43;100.00;99831.47;5100591;28;20036;-68
2023/02/17 07:49:43;;;;;;;82.85;34.30;;;;;;;8.58;100.00;99844.66;5098502;28;20055;-68
2023/02/17 07:52:09;;;;;;;104.55;37.38;;;;;;;8.63;100.00;99833.28;5097613;28;20042;-66
2023/02/17 07:54:34;;;;;;;105.95;37.95;;;;;;;8.68;100.00;99838.88;5077151;28;20032;-67
2023/02/17 07:56:59;;;;;;;112.65;37.83;;;;;;;8.69;100.00;99829.78;5077390;28;20100;-68
2023/02/17 07:59:25;;;;;;;126.28;41.63;;;;;;;8.72;100.00;99824.00;5076321;28;20024;-68
2023/02/17 08:01:51;;;;;;;128.65;41.90;;;;;;;8.68;100.00;99795.97;5092181;28;20025;-66
2023/02/17 08:04:16;;;;;;;110.78;38.78;;;;;;;8.74;100.00;99796.94;5076517;28;20028;-66
2023/02/17 08:06:42;;;;;;;122.63;39.72;;;;;;;8.73;100.00;99790.75;5077305;28;20487;-67
2023/02/17 08:14:37;;;;;;;90.40;34.65;;;;;;;8.80;100.00;99751.31;5078118;28;20039;-66
2023/02/17 08:17:04;;;;;;;100.03;33.22;;;;;;;8.73;100.00;99749.72;5078335;28;20052;-67
2023/02/17 08:19:29;;;;;;;84.55;32.75;;;;;;;8.77;100.00;99741.03;5079088;28;20031;-66
2023/02/17 08:21:55;;;;;;;86.88;30.83;;;;;;;8.77;100.00;99724.94;5079802;28;20028;-67
2023/02/17 08:24:20;;;;;;;87.85;30.27;;;;;;;8.78;100.00;99721.22;5078014;28;20158;-67
2023/02/17 08:26:49;;;;;;;84.68;28.77;;;;;;;8.77;100.00;99719.56;5077255;28;20463;-68
2023/02/17 08:29:16;;;;;;;77.22;27.30;;;;;;;8.84;100.00;99706.97;5063365;28;20043;-67
2023/02/17 08:31:42;;;;;;;72.55;26.00;;;;;;;8.84;100.00;99700.75;5094944;28;20021;-68
2023/02/17 08:34:10;;;;;;;68.07;24.80;;;;;;;8.81;100.00;99687.78;5078806;28;20048;-68
2023/02/17 08:36:38;;;;;;;73.00;25.13;;;;;;;8.83;100.00;99686.53;5094858;28;20036;-68
2023/02/17 08:39:09;;;;;;;71.93;24.23;;;;;;;8.87;100.00;99674.34;5078903;28;20108;-68
2023/02/17 08:41:39;;;;;;;66.93;22.83;;;;;;;8.86;100.00;99671.88;5077147;28;20029;-67
2023/02/17 08:44:12;;;;;;;57.10;21.23;;;;;;;8.92;100.00;99662.97;5098868;28;20368;-68
2023/02/17 08:46:38;;;;;;;59.03;20.42;;;;;;;8.80;100.00;99643.22;5097097;28;20020;-68
2023/02/17 08:49:06;;;;;;;56.67;20.42;;;;;;;8.90;100.00;99647.06;5099088;28;20092;-68
2023/02/17 08:51:31;;;;;;;52.05;19.08;;;;;;;8.95;100.00;99643.75;5098659;28;20067;-66
2023/02/17 08:53:59;;;;;;;51.53;17.98;;;;;;;8.96;100.00;99631.16;5096794;28;20546;-68
2023/02/17 08:56:26;;;;;;;54.45;18.75;;;;;;;8.96;100.00;99628.47;5097093;28;20052;-67
2023/02/17 08:58:52;;;;;;;51.88;19.08;;;;;;;8.98;100.00;99623.72;5096018;28;20039;-67
2023/02/17 09:01:18;;;;;;;58.70;18.60;;;;;;;8.99;100.00;99611.94;5097095;28;20032;-68
2023/02/17 09:03:45;;;;;;;50.90;17.73;;;;;;;9.04;100.00;99609.41;5097866;28;20039;-68
2023/02/17 09:06:10;;;;;;;49.92;16.88;;;;;;;9.01;100.00;99591.09;5084292;28;20028;-67
2023/02/17 09:08:38;;;;;;;48.70;17.63;;;;;;;8.99;100.00;99585.09;5101312;28;20067;-68
2023/02/17 09:11:04;;;;;;;50.03;16.95;;;;;;;9.04;100.00;99579.88;5100214;28;20034;-66
2023/02/17 09:13:29;;;;;;;41.58;15.75;;;;;;;9.07;100.00;99558.84;5097460;28;20046;-66
2023/02/17 09:15:55;;;;;;;45.67;15.68;;;;;;;9.05;100.00;99552.03;5097613;28;20027;-66
2023/02/17 09:18:20;;;;;;;41.20;14.45;;;;;;;9.09;100.00;99550.56;5098633;28;20048;-66
2023/02/17 09:20:47;;;;;;;44.53;14.70;;;;;;;9.12;100.00;99534.81;5098072;28;20694;-67
2023/02/17 09:23:13;;;;;;;43.35;15.02;;;;;;;9.12;100.00;99528.63;5080076;28;20070;-67
2023/02/17 09:25:38;;;;;;;37.42;14.10;;;;;;;9.03;100.00;99508.50;5097110;28;20028;-66
2023/02/17 09:28:04;;;;;;;35.70;13.88;;;;;;;9.07;100.00;99507.84;5096498;28;20035;-67
2023/02/17 09:30:30;;;;;;;40.65;15.23;;;;;;;9.15;100.00;99501.38;5095937;28;20077;-67
2023/02/17 09:32:57;;;;;;;40.25;15.27;;;;;;;9.21;100.00;99487.06;5097361;28;20024;-68
2023/02/17 09:35:23;;;;;;;43.50;15.65;;;;;;;9.22;100.00;99474.47;5097138;28;20032;-68
2023/02/17 09:37:49;;;;;;;38.95;15.68;;;;;;;9.22;100.00;99453.00;5098380;28;20032;-67
2023/02/17 09:40:36;;;;;;;40.58;15.32;;;;;;;9.18;100.00;99448.06;5096584;28;20064;-67
2023/02/17 09:43:02;;;;;;;39.30;14.57;;;;;;;9.20;100.00;99428.22;5112351;28;20491;-68
2023/02/17 09:45:33;;;;;;;38.40;13.65;;;;;;;9.28;100.00;99431.44;5095526;28;20047;-69
2023/02/17 09:48:02;;;;;;;40.78;14.60;;;;;;;9.37;100.00;99434.63;5080535;28;20479;-68
2023/02/17 09:50:39;;;;;;;31.75;12.27;;;;;;;9.35;100.00;99431.38;5077037;28;20138;-69
2023/02/17 09:53:21;;;;;;;28.70;11.82;;;;;;;9.29;100.00;99433.06;5077151;28;20036;-67
2023/02/17 09:55:50;;;;;;;28.35;11.63;;;;;;;9.30;100.00;99420.47;5076562;28;20134;-68
2023/02/17 09:58:41;;;;;;;25.33;10.10;;;;;;;9.41;100.00;99415.19;5076963;28;20017;-66
2023/02/17 10:01:11;;;;;;;23.23;8.68;;;;;;;9.38;100.00;99407.56;5092345;28;20070;-66
2023/02/17 10:03:45;;;;;;;22.77;8.75;;;;;;;9.39;100.00;99384.22;5078024;28;20036;-68
2023/02/17 10:06:13;;;;;;;22.02;7.93;;;;;;;9.27;100.00;99368.06;5075714;28;20504;-69
2023/02/17 10:08:50;;;;;;;17.50;7.38;;;;;;;9.25;100.00;99370.16;5076551;28;20047;-69
2023/02/17 10:11:24;;;;;;;14.63;6.70;;;;;;;9.34;100.00;99357.25;5078448;28;20028;-67
2023/02/17 10:13:53;;;;;;;15.93;6.85;;;;;;;9.27;100.00;99349.28;5079941;28;20107;-68
2023/02/17 10:16:29;;;;;;;16.17;6.75;;;;;;;9.35;100.00;99324.81;5080493;28;20037;-67
2023/02/17 10:19:04;;;;;;;17.98;7.15;;;;;;;9.37;100.00;99313.81;5082029;28;20091;-67
2023/02/17 10:21:39;;;;;;;18.27;8.05;;;;;;;9.35;100.00;99308.69;5077894;28;20017;-67
2023/02/17 10:24:05;;;;;;;17.98;6.90;;;;;;;9.39;100.00;99287.56;5084680;28;20020;-68
2023/02/17 10:26:38;;;;;;;20.55;8.00;;;;;;;9.48;100.00;99285.41;5099919;28;20036;-69
2023/02/17 10:29:27;;;;;;;18.80;7.22;;;;;;;9.43;100.00;99277.19;5100094;28;20028;-67
2023/02/17 10:32:22;;;;;;;20.98;7.70;;;;;;;9.45;100.00;99261.69;5096898;28;20020;-66
2023/02/17 10:34:54;;;;;;;18.50;6.65;;;;;;;9.45;100.00;99243.72;5101887;28;20108;-67
2023/02/17 10:37:44;;;;;;;18.95;6.18;;;;;;;9.43;100.00;99239.63;5103262;28;20024;-68
2023/02/17 10:40:16;;;;;;;14.10;5.43;;;;;;;9.37;100.00;99231.44;5108051;28;20115;-67
2023/02/17 10:42:41;;;;;;;12.60;4.82;;;;;;;9.53;100.00;99224.56;5109396;28;20359;-67
2023/02/17 10:45:09;;;;;;;10.93;4.82;;;;;;;9.47;100.00;99208.56;5102514;28;20039;-67
2023/02/17 10:47:37;;;;;;;6.65;3.40;;;;;;;9.33;100.00;99208.78;5101714;28;20024;-67
2023/02/17 10:50:07;;;;;;;9.77;3.50;;;;;;;9.32;100.00;99180.31;5085211;28;20035;-68
2023/02/17 10:52:38;;;;;;;6.50;2.90;;;;;;;9.53;100.00;99196.91;5103828;28;20024;-68
2023/02/17 10:55:32;;;;;;;8.70;3.70;;;;;;;9.57;100.00;99172.06;5101584;28;20085;-68
2023/02/17 10:58:09;;;;;;;7.90;2.88;;;;;;;9.59;100.00;99158.38;5100451;28;20454;-68
2023/02/17 11:00:36;;;;;;;11.52;4.50;;;;;;;9.63;100.00;99146.97;5096104;28;20507;-67
2023/02/17 11:03:01;;;;;;;8.52;3.45;;;;;;;9.61;100.00;99122.19;5099340;28;20028;-68
2023/02/17 11:05:29;;;;;;;7.07;3.30;;;;;;;9.64;100.00;99119.06;5081479;28;20035;-69
2023/02/17 11:08:06;;;;;;;9.20;3.05;;;;;;;9.58;100.00;99103.06;5097993;28;20036;-70
2023/02/17 11:10:36;;;;;;;7.97;3.88;;;;;;;9.61;100.00;99086.47;5102675;28;20050;-70
2023/02/17 11:13:03;;;;;;;10.48;4.15;;;;;;;9.68;100.00;99087.16;5099149;28;20115;-70
2023/02/17 11:15:34;;;;;;;9.00;4.25;;;;;;;9.65;100.00;99068.84;5098430;28;20051;-70
2023/02/17 11:18:09;;;;;;;10.98;4.47;;;;;;;9.72;100.00;99049.91;5098288;28;20040;-72
2023/02/17 11:20:35;;;;;;;;;;;;;;;9.59;100.00;99054.47;5100595;28;20024;-69
2023/02/17 11:23:03;;;;;;;9.63;3.88;;;;;;;9.56;100.00;99043.38;5100184;28;19918;-70
2023/02/17 11:25:32;;;;;;;8.85;4.50;;;;;;;9.38;100.00;99002.22;5099079;28;20032;-71
2023/02/17 11:28:03;;;;;;;13.38;5.30;;;;;;;9.50;100.00;99018.28;5102844;28;20319;-71